createdAt,value
2018-12-11T00:01:52.462Z,94.50
2018-12-11T00:04:26.987Z,94.10
2018-12-11T00:07:01.423Z,93.90
2018-12-11T00:09:35.817Z,94.10
2018-12-11T00:12:10.179Z,94.10
2018-12-11T00:14:44.632Z,94.20
2018-12-11T00:17:19.187Z,94.00
2018-12-11T00:19:53.693Z,94.00
2018-12-11T00:22:28.036Z,93.90
2018-12-11T00:25:02.566Z,94.10
2018-12-11T00:27:37.051Z,94.10
2018-12-11T00:30:11.496Z,94.10
2018-12-11T00:32:45.872Z,94.20
2018-12-11T00:35:20.225Z,93.80
2018-12-11T00:37:54.580Z,94.20
2018-12-11T00:40:29.187Z,94.10
2018-12-11T00:43:03.624Z,94.00
2018-12-11T00:45:38.071Z,94.20
2018-12-11T00:48:12.506Z,93.70
2018-12-11T00:50:47.037Z,93.60
2018-12-11T00:53:21.472Z,93.70
2018-12-11T00:55:55.750Z,93.30
2018-12-11T00:58:30.290Z,93.50
2018-12-11T01:01:04.826Z,93.60
2018-12-11T01:03:39.229Z,93.80
2018-12-11T01:06:13.781Z,93.80
2018-12-11T01:08:48.265Z,93.90
2018-12-11T01:11:22.769Z,93.50
2018-12-11T01:13:57.091Z,93.10
2018-12-11T01:16:31.585Z,92.60
2018-12-11T01:19:06.187Z,93.00
2018-12-11T01:21:40.510Z,92.80
2018-12-11T01:24:14.784Z,92.70
2018-12-11T01:26:49.414Z,92.90
2018-12-11T01:29:23.936Z,92.60
2018-12-11T01:31:58.493Z,92.20
2018-12-11T01:34:32.893Z,92.20
2018-12-11T01:37:07.308Z,92.30
2018-12-11T01:39:41.763Z,92.00
2018-12-11T01:42:16.113Z,92.20
2018-12-11T01:44:50.570Z,91.70
2018-12-11T01:47:25.050Z,92.00
2018-12-11T01:49:59.438Z,91.90
2018-12-11T01:52:33.824Z,91.80
2018-12-11T01:55:08.398Z,91.70
2018-12-11T01:57:42.899Z,91.80
2018-12-11T02:00:18.326Z,91.90
2018-12-11T02:02:52.782Z,91.80
2018-12-11T02:05:27.175Z,91.70
2018-12-11T02:08:01.568Z,91.80
2018-12-11T02:10:36.004Z,91.90
2018-12-11T02:13:10.300Z,92.10
2018-12-11T02:15:44.604Z,91.80
2018-12-11T02:18:18.950Z,91.90
2018-12-11T02:20:53.264Z,92.30
2018-12-11T02:23:27.720Z,92.20
2018-12-11T02:26:02.074Z,92.10
2018-12-11T02:28:36.434Z,92.10
2018-12-11T02:31:10.754Z,92.10
2018-12-11T02:33:45.297Z,91.90
2018-12-11T02:36:19.758Z,91.60
2018-12-11T02:38:54.132Z,92.00
2018-12-11T02:41:28.465Z,92.30
2018-12-11T02:44:03.250Z,92.00
2018-12-11T02:46:37.782Z,91.90
2018-12-11T02:49:12.296Z,91.60
2018-12-11T02:51:46.567Z,91.50
2018-12-11T02:54:21.037Z,91.50
2018-12-11T02:56:55.396Z,91.60
2018-12-11T02:59:29.782Z,91.60
2018-12-11T03:02:04.489Z,91.50
2018-12-11T03:04:39.122Z,91.70
2018-12-11T03:07:13.555Z,91.60
2018-12-11T03:09:47.997Z,91.80
2018-12-11T03:12:22.508Z,91.50
2018-12-11T03:14:56.845Z,91.80
2018-12-11T03:17:31.239Z,91.80
2018-12-11T03:20:05.724Z,92.00
2018-12-11T03:22:42.247Z,91.80
2018-12-11T03:25:16.625Z,91.80
2018-12-11T03:27:50.980Z,92.10
2018-12-11T03:30:25.409Z,92.20
2018-12-11T03:32:59.806Z,92.30
2018-12-11T03:35:35.673Z,92.50
2018-12-11T03:38:10.061Z,92.50
2018-12-11T03:40:44.503Z,92.90
2018-12-11T03:43:18.780Z,92.70
2018-12-11T03:45:54.159Z,93.00
2018-12-11T03:48:28.419Z,92.70
2018-12-11T03:51:02.745Z,92.70
2018-12-11T03:53:37.161Z,92.60
2018-12-11T03:56:11.502Z,92.30
2018-12-11T03:58:45.951Z,92.00
2018-12-11T04:01:20.350Z,92.10
2018-12-11T04:03:54.907Z,92.00
2018-12-11T04:06:29.354Z,91.70
2018-12-11T04:09:05.504Z,91.60
2018-12-11T04:11:39.940Z,91.70
2018-12-11T04:14:14.616Z,91.70
2018-12-11T04:16:49.145Z,91.90
2018-12-11T04:19:24.445Z,91.80
2018-12-11T04:21:58.690Z,91.70
2018-12-11T04:24:33.223Z,92.10
2018-12-11T04:27:07.487Z,92.10
2018-12-11T04:29:41.903Z,92.40
2018-12-11T04:32:16.345Z,92.50
2018-12-11T04:34:50.728Z,92.50
2018-12-11T04:37:25.201Z,92.70
2018-12-11T04:39:59.733Z,92.80
2018-12-11T04:42:34.124Z,93.10
2018-12-11T04:45:08.536Z,93.50
2018-12-11T04:47:43.058Z,94.10
2018-12-11T04:50:17.589Z,94.30
2018-12-11T04:52:51.953Z,94.70
2018-12-11T04:55:26.281Z,94.90
2018-12-11T04:58:00.810Z,95.30
2018-12-11T05:00:35.141Z,95.20
2018-12-11T05:03:09.533Z,95.50
2018-12-11T05:05:44.061Z,95.50
2018-12-11T05:08:18.574Z,95.70
2018-12-11T05:10:54.197Z,95.70
2018-12-11T05:13:28.540Z,95.20
2018-12-11T05:16:02.923Z,94.70
2018-12-11T05:18:37.430Z,95.00
2018-12-11T05:21:11.837Z,94.60
2018-12-11T05:23:46.110Z,93.60
2018-12-11T05:26:20.575Z,94.20
2018-12-11T05:28:55.028Z,93.90
2018-12-11T05:31:29.446Z,93.70
2018-12-11T05:34:03.843Z,93.80
2018-12-11T05:36:38.486Z,93.60
2018-12-11T05:39:12.908Z,93.40
2018-12-11T05:41:47.445Z,93.50
2018-12-11T05:44:21.797Z,93.70
2018-12-11T05:46:56.201Z,93.50
2018-12-11T05:49:30.625Z,93.60
2018-12-11T05:52:05.164Z,93.90
2018-12-11T05:54:39.423Z,94.10
2018-12-11T05:57:13.797Z,93.80
2018-12-11T05:59:48.176Z,93.80
2018-12-11T06:02:22.498Z,93.90
2018-12-11T06:04:57.093Z,94.00
2018-12-11T06:07:31.416Z,93.50
2018-12-11T06:10:07.501Z,93.50
2018-12-11T06:12:41.789Z,93.30
2018-12-11T06:15:16.317Z,93.10
2018-12-11T06:17:50.802Z,93.20
2018-12-11T06:20:25.121Z,93.00
2018-12-11T06:22:59.545Z,93.10
2018-12-11T06:25:33.836Z,93.00
2018-12-11T06:28:08.287Z,93.10
2018-12-11T06:30:42.673Z,93.10
2018-12-11T06:33:17.044Z,93.10
2018-12-11T06:35:51.369Z,93.30
2018-12-11T06:38:25.823Z,93.20
2018-12-11T06:41:00.240Z,93.60
2018-12-11T06:43:34.572Z,93.70
2018-12-11T06:46:09.066Z,93.60
2018-12-11T06:48:43.573Z,93.90
2018-12-11T06:51:18.121Z,94.10
2018-12-11T06:53:52.464Z,94.10
2018-12-11T06:56:26.743Z,94.00
2018-12-11T06:59:01.258Z,94.00
2018-12-11T07:01:35.732Z,94.00
2018-12-11T07:04:10.063Z,94.00
2018-12-11T07:06:44.592Z,94.10
2018-12-11T07:09:19.033Z,94.20
2018-12-11T07:11:53.399Z,94.10
2018-12-11T07:14:27.953Z,94.00
2018-12-11T07:17:02.407Z,93.90
2018-12-11T07:19:36.832Z,94.20
2018-12-11T07:22:11.243Z,94.10
2018-12-11T07:24:45.614Z,94.20
2018-12-11T07:27:20.048Z,94.20
2018-12-11T07:29:54.621Z,94.10
2018-12-11T07:32:28.933Z,94.10
2018-12-11T07:35:03.660Z,94.20
2018-12-11T07:37:38.071Z,94.30
2018-12-11T07:40:12.480Z,94.10
2018-12-11T07:42:46.884Z,93.80
2018-12-11T07:45:21.185Z,93.80
2018-12-11T07:47:55.608Z,93.50
2018-12-11T07:50:30.158Z,93.50
2018-12-11T07:53:06.466Z,93.70
2018-12-11T07:55:40.942Z,93.80
2018-12-11T07:58:15.214Z,94.10
2018-12-11T08:00:49.561Z,94.10
2018-12-11T08:03:23.808Z,94.70
2018-12-11T08:05:58.116Z,95.20
2018-12-11T08:08:32.477Z,95.30
2018-12-11T08:11:06.987Z,95.60
2018-12-11T08:13:41.293Z,95.70
2018-12-11T08:16:16.926Z,95.80
2018-12-11T08:18:51.905Z,96.00
2018-12-11T08:21:26.611Z,96.00
2018-12-11T08:24:00.958Z,96.00
2018-12-11T08:26:35.359Z,96.50
2018-12-11T08:29:09.920Z,97.10
2018-12-11T08:31:44.304Z,97.50
2018-12-11T08:34:18.765Z,97.90
2018-12-11T08:36:53.200Z,98.00
2018-12-11T08:39:27.674Z,98.10
2018-12-11T08:42:02.140Z,98.20
2018-12-11T08:44:36.703Z,98.20
2018-12-11T08:47:11.337Z,98.40
2018-12-11T08:49:45.645Z,97.80
2018-12-11T08:52:20.405Z,97.70
2018-12-11T08:54:54.741Z,97.40
2018-12-11T08:57:29.179Z,96.70
2018-12-11T09:00:04.051Z,96.50
2018-12-11T09:02:38.446Z,96.30
2018-12-11T09:05:12.955Z,95.20
2018-12-11T09:07:47.292Z,95.70
2018-12-11T09:10:21.725Z,95.20
2018-12-11T09:12:56.085Z,95.30
2018-12-11T09:15:30.381Z,95.70
2018-12-11T09:18:04.684Z,95.70
2018-12-11T09:20:39.144Z,95.60
2018-12-11T09:23:13.593Z,95.80
2018-12-11T09:25:48.091Z,95.80
2018-12-11T09:28:22.456Z,95.40
2018-12-11T09:30:57.000Z,95.40
2018-12-11T09:33:31.468Z,94.90
2018-12-11T09:36:05.996Z,94.70
2018-12-11T09:38:40.670Z,94.20
2018-12-11T09:41:15.039Z,94.10
2018-12-11T09:43:49.508Z,94.20
2018-12-11T09:46:24.029Z,93.60
2018-12-11T09:48:58.463Z,93.40
2018-12-11T09:51:33.170Z,93.20
2018-12-11T09:54:07.443Z,92.80
2018-12-11T09:56:41.973Z,92.60
2018-12-11T09:59:16.294Z,92.50
2018-12-11T10:01:50.686Z,92.40
2018-12-11T10:04:25.117Z,92.40
2018-12-11T10:06:59.419Z,92.40
2018-12-11T10:09:33.775Z,92.10
2018-12-11T10:12:08.124Z,92.10
2018-12-11T10:14:42.523Z,92.30
2018-12-11T10:17:17.060Z,92.20
2018-12-11T10:19:51.436Z,91.90
2018-12-11T10:22:25.894Z,91.80
2018-12-11T10:25:00.306Z,91.90
2018-12-11T10:27:34.643Z,92.50
2018-12-11T10:30:10.309Z,94.30
2018-12-11T10:32:49.162Z,94.30
2018-12-11T10:35:23.737Z,94.00
2018-12-11T10:37:58.222Z,94.00
2018-12-11T10:40:32.674Z,93.80
2018-12-11T10:43:07.180Z,93.70
2018-12-11T10:45:41.542Z,93.70
2018-12-11T10:48:16.006Z,93.10
2018-12-11T10:50:50.473Z,92.30
2018-12-11T10:53:24.941Z,91.30
2018-12-11T10:55:59.256Z,91.30
2018-12-11T10:58:33.798Z,90.90
2018-12-11T11:01:13.640Z,90.60
2018-12-11T11:03:48.034Z,91.10
2018-12-11T11:06:22.613Z,91.90
2018-12-11T11:08:57.004Z,92.60
2018-12-11T11:11:31.364Z,93.60
2018-12-11T11:14:05.738Z,94.30
2018-12-11T11:16:40.072Z,94.60
2018-12-11T11:19:14.407Z,94.80
2018-12-11T11:21:48.797Z,94.90
2018-12-11T11:24:23.372Z,94.80
2018-12-11T11:26:57.969Z,94.50
2018-12-11T11:29:32.454Z,94.40
2018-12-11T11:32:06.760Z,93.60
2018-12-11T11:34:41.194Z,93.70
2018-12-11T11:37:15.514Z,92.20
2018-12-11T11:39:49.976Z,91.70
2018-12-11T11:42:24.672Z,91.40
2018-12-11T11:44:59.351Z,91.10
2018-12-11T11:47:33.667Z,91.30
2018-12-11T11:50:11.220Z,90.20
2018-12-11T11:52:45.646Z,89.60
2018-12-11T11:55:20.192Z,89.40
2018-12-11T11:57:54.466Z,89.70
2018-12-11T12:00:28.876Z,91.50
2018-12-11T12:03:03.348Z,92.60
2018-12-11T12:05:37.787Z,93.90
2018-12-11T12:08:12.170Z,93.90
2018-12-11T12:10:46.769Z,93.60
2018-12-11T12:13:21.356Z,93.70
2018-12-11T12:15:55.745Z,93.90
2018-12-11T12:18:30.129Z,93.60
2018-12-11T12:21:04.582Z,93.90
2018-12-11T12:23:38.985Z,93.40
2018-12-11T12:26:13.430Z,93.20
2018-12-11T12:28:47.788Z,93.60
2018-12-11T12:31:23.604Z,93.90
2018-12-11T12:33:58.110Z,94.10
2018-12-11T12:36:32.545Z,94.40
2018-12-11T12:39:08.182Z,94.50
2018-12-11T12:41:42.705Z,94.60
2018-12-11T12:44:17.230Z,94.70
2018-12-11T12:46:51.524Z,94.50
2018-12-11T12:49:25.816Z,94.10
2018-12-11T12:52:00.471Z,93.40
2018-12-11T12:54:34.852Z,92.70
2018-12-11T12:57:09.267Z,92.70
2018-12-11T12:59:43.653Z,92.50
2018-12-11T13:02:18.053Z,92.00
2018-12-11T13:04:52.507Z,92.00
2018-12-11T13:07:26.845Z,92.00
2018-12-11T13:10:01.284Z,92.00
2018-12-11T13:12:35.878Z,92.30
2018-12-11T13:15:10.406Z,91.70
2018-12-11T13:17:44.838Z,91.40
2018-12-11T13:20:19.334Z,91.90
2018-12-11T13:22:53.804Z,91.30
2018-12-11T13:25:28.043Z,91.20
2018-12-11T13:28:02.417Z,90.70
2018-12-11T13:30:37.271Z,90.40
2018-12-11T13:33:11.659Z,90.70
2018-12-11T13:35:46.280Z,90.70
2018-12-11T13:38:20.582Z,90.10
2018-12-11T13:40:55.171Z,90.00
2018-12-11T13:43:29.610Z,90.00
2018-12-11T13:46:04.004Z,90.10
2018-12-11T13:48:38.801Z,90.20
2018-12-11T13:51:13.088Z,89.80
2018-12-11T13:53:47.432Z,90.10
2018-12-11T13:56:21.754Z,90.10
2018-12-11T13:58:56.093Z,90.20
2018-12-11T14:01:30.609Z,90.40
2018-12-11T14:04:05.099Z,90.50
2018-12-11T14:06:39.453Z,90.40
2018-12-11T14:09:19.460Z,90.80
2018-12-11T14:11:53.753Z,90.70
2018-12-11T14:14:28.257Z,91.50
2018-12-11T14:17:02.800Z,91.70
2018-12-11T14:19:37.356Z,92.20
2018-12-11T14:22:11.668Z,92.90
2018-12-11T14:24:45.952Z,93.10
2018-12-11T14:27:20.263Z,93.20
2018-12-11T14:29:54.725Z,93.70
2018-12-11T14:32:29.213Z,93.80
2018-12-11T14:35:04.178Z,94.30
2018-12-11T14:37:38.700Z,94.50
2018-12-11T14:40:13.320Z,94.80
2018-12-11T14:42:47.680Z,95.00
2018-12-11T14:45:22.028Z,94.90
2018-12-11T14:47:56.521Z,95.10
2018-12-11T14:50:30.821Z,95.30
2018-12-11T14:53:05.264Z,95.20
2018-12-11T14:55:39.783Z,95.10
2018-12-11T14:58:14.142Z,95.00
2018-12-11T15:00:48.645Z,95.20
2018-12-11T15:03:23.008Z,94.80
2018-12-11T15:05:57.504Z,94.70
2018-12-11T15:08:32.100Z,94.70
2018-12-11T15:11:06.416Z,94.50
2018-12-11T15:13:40.947Z,94.40
2018-12-11T15:16:15.696Z,94.50
2018-12-11T15:18:50.033Z,94.50
2018-12-11T15:21:24.359Z,94.50
2018-12-11T15:23:58.889Z,94.60
2018-12-11T15:26:33.389Z,94.60
2018-12-11T15:29:07.779Z,94.50
2018-12-11T15:31:42.187Z,94.60
2018-12-11T15:34:16.509Z,94.60
2018-12-11T15:36:50.836Z,94.60
2018-12-11T15:39:25.444Z,94.40
2018-12-11T15:41:59.956Z,94.30
2018-12-11T15:44:34.236Z,94.20
2018-12-11T15:47:08.801Z,94.70
2018-12-11T15:49:43.121Z,94.40
2018-12-11T15:52:17.552Z,94.60
2018-12-11T15:54:51.864Z,94.50
2018-12-11T15:57:26.347Z,94.50
2018-12-11T16:00:00.844Z,94.60
2018-12-11T16:02:35.172Z,94.40
2018-12-11T16:05:09.652Z,94.30
2018-12-11T16:07:44.144Z,94.30
2018-12-11T16:10:18.474Z,94.20
2018-12-11T16:12:53.203Z,94.10
2018-12-11T16:15:27.502Z,94.30
2018-12-11T16:18:01.802Z,94.20
2018-12-11T16:20:36.065Z,94.10
2018-12-11T16:23:10.442Z,94.20
2018-12-11T16:25:44.929Z,94.50
2018-12-11T16:28:19.273Z,93.90
2018-12-11T16:30:53.696Z,93.80
2018-12-11T16:33:28.149Z,94.00
2018-12-11T16:36:02.610Z,94.10
2018-12-11T16:38:37.104Z,93.90
2018-12-11T16:41:11.421Z,94.00
2018-12-11T16:43:45.821Z,94.30
2018-12-11T16:46:20.420Z,94.60
2018-12-11T16:48:54.732Z,94.90
2018-12-11T16:51:29.119Z,95.30
2018-12-11T16:54:03.397Z,95.50
2018-12-11T16:56:37.680Z,95.50
2018-12-11T16:59:12.120Z,95.50
2018-12-11T17:01:46.639Z,95.60
2018-12-11T17:04:21.067Z,95.60
2018-12-11T17:06:55.403Z,95.40
2018-12-11T17:09:29.939Z,95.40
2018-12-11T17:12:04.857Z,95.70
2018-12-11T17:14:39.416Z,95.70
2018-12-11T17:17:13.841Z,95.80
2018-12-11T17:19:48.131Z,95.40
2018-12-11T17:22:22.628Z,95.50
2018-12-11T17:24:57.069Z,95.40
2018-12-11T17:27:31.458Z,95.50
2018-12-11T17:30:06.757Z,95.40
2018-12-11T17:32:41.155Z,95.20
2018-12-11T17:35:15.621Z,95.10
2018-12-11T17:37:50.164Z,95.00
2018-12-11T17:40:24.701Z,94.90
2018-12-11T17:42:59.069Z,94.90
2018-12-11T17:45:33.552Z,94.70
2018-12-11T17:48:09.026Z,94.80
2018-12-11T17:50:43.469Z,94.80
2018-12-11T17:53:17.893Z,94.70
2018-12-11T17:55:52.422Z,94.70
2018-12-11T17:58:26.907Z,94.50
2018-12-11T18:01:01.311Z,94.50
2018-12-11T18:03:35.633Z,94.50
2018-12-11T18:06:09.930Z,94.40
2018-12-11T18:08:44.384Z,94.10
2018-12-11T18:11:18.652Z,94.20
2018-12-11T18:13:53.031Z,94.50
2018-12-11T18:16:27.300Z,94.80
2018-12-11T18:19:01.744Z,94.90
2018-12-11T18:21:36.072Z,94.60
2018-12-11T18:24:10.476Z,94.40
2018-12-11T18:26:44.824Z,94.30
2018-12-11T18:29:19.270Z,94.00
2018-12-11T18:31:53.932Z,94.00
2018-12-11T18:34:28.465Z,93.90
2018-12-11T18:37:03.136Z,93.80
2018-12-11T18:39:37.537Z,93.80
2018-12-11T18:42:12.045Z,94.10
2018-12-11T18:44:46.341Z,93.90
2018-12-11T18:47:20.611Z,94.10
2018-12-11T18:49:55.013Z,93.50
2018-12-11T18:52:29.394Z,93.20
2018-12-11T18:55:04.164Z,93.30
2018-12-11T18:57:38.679Z,93.10
2018-12-11T19:00:13.184Z,93.60
2018-12-11T19:02:47.846Z,93.20
2018-12-11T19:05:22.283Z,93.40
2018-12-11T19:07:56.833Z,93.50
2018-12-11T19:10:31.364Z,93.30
2018-12-11T19:13:05.741Z,93.50
2018-12-11T19:15:40.136Z,93.20
2018-12-11T19:18:14.584Z,92.60
2018-12-11T19:20:49.169Z,92.80
2018-12-11T19:23:31.092Z,93.10
2018-12-11T19:26:05.821Z,93.10
2018-12-11T19:28:40.444Z,93.00
2018-12-11T19:31:14.720Z,92.90
2018-12-11T19:33:49.231Z,93.30
2018-12-11T19:36:23.650Z,93.20
2018-12-11T19:38:58.108Z,92.90
2018-12-11T19:41:33.419Z,93.20
2018-12-11T19:44:07.901Z,93.10
2018-12-11T19:46:42.265Z,93.10
2018-12-11T19:49:16.716Z,92.80
2018-12-11T19:51:51.327Z,92.80
2018-12-11T19:54:26.114Z,93.00
2018-12-11T19:57:00.557Z,93.50
2018-12-11T19:59:35.813Z,93.60
2018-12-11T20:02:10.232Z,93.60
2018-12-11T20:04:44.563Z,93.70
2018-12-11T20:07:18.976Z,93.80
2018-12-11T20:09:59.003Z,94.00
2018-12-11T20:12:33.594Z,93.80
2018-12-11T20:15:09.325Z,93.80
2018-12-11T20:17:43.679Z,93.80
2018-12-11T20:20:26.419Z,93.80
2018-12-11T20:23:00.757Z,93.80
2018-12-11T20:25:35.408Z,94.20
2018-12-11T20:28:09.848Z,93.80
2018-12-11T20:30:44.154Z,93.60
2018-12-11T20:33:18.743Z,93.60
2018-12-11T20:35:53.271Z,93.70
2018-12-11T20:38:27.716Z,93.40
2018-12-11T20:41:02.127Z,93.50
2018-12-11T20:43:36.512Z,93.40
2018-12-11T20:46:10.825Z,93.40
2018-12-11T20:48:45.337Z,93.50
2018-12-11T20:51:20.015Z,93.60
2018-12-11T20:53:54.633Z,93.60
2018-12-11T20:56:29.064Z,93.80
2018-12-11T20:59:03.634Z,93.60
2018-12-11T21:01:38.299Z,93.10
2018-12-11T21:04:12.777Z,93.00
2018-12-11T21:06:47.673Z,93.20
2018-12-11T21:09:22.155Z,93.00
2018-12-11T21:11:56.469Z,92.90
2018-12-11T21:14:30.993Z,93.20
2018-12-11T21:17:05.349Z,92.70
2018-12-11T21:19:39.987Z,92.60
2018-12-11T21:22:14.432Z,92.90
2018-12-11T21:24:48.751Z,92.70
2018-12-11T21:27:23.095Z,92.60
2018-12-11T21:29:57.516Z,92.70
2018-12-11T21:32:31.968Z,92.80
2018-12-11T21:35:08.111Z,93.00
2018-12-11T21:37:42.494Z,93.20
2018-12-11T21:40:17.060Z,93.00
2018-12-11T21:42:51.476Z,93.20
2018-12-11T21:45:25.805Z,93.00
2018-12-11T21:48:00.310Z,93.20
2018-12-11T21:50:34.880Z,93.60
2018-12-11T21:53:09.320Z,93.80
2018-12-11T21:55:43.684Z,93.90
2018-12-11T21:58:18.292Z,93.70
2018-12-11T22:00:52.729Z,93.70
2018-12-11T22:03:27.439Z,93.60
2018-12-11T22:06:02.177Z,93.60
2018-12-11T22:08:36.650Z,93.50
2018-12-11T22:11:11.217Z,93.00
2018-12-11T22:13:45.848Z,93.20
2018-12-11T22:16:20.288Z,93.20
2018-12-11T22:18:54.780Z,93.40
2018-12-11T22:21:29.113Z,93.50
2018-12-11T22:24:03.441Z,93.50
2018-12-11T22:26:37.733Z,93.50
2018-12-11T22:29:12.171Z,93.50
2018-12-11T22:31:46.814Z,93.30
2018-12-11T22:34:21.215Z,93.30
2018-12-11T22:36:55.680Z,93.20
2018-12-11T22:39:30.049Z,93.30
2018-12-11T22:42:04.464Z,93.30
2018-12-11T22:44:39.910Z,93.40
2018-12-11T22:47:14.488Z,93.30
2018-12-11T22:49:48.980Z,93.00
2018-12-11T22:52:23.796Z,93.10
2018-12-11T22:54:58.117Z,92.70
2018-12-11T22:57:32.688Z,92.90
2018-12-11T23:00:08.100Z,93.00
2018-12-11T23:02:42.368Z,93.60
2018-12-11T23:05:16.741Z,93.80
2018-12-11T23:07:51.211Z,94.10
2018-12-11T23:10:25.530Z,94.20
2018-12-11T23:13:00.101Z,94.20
2018-12-11T23:15:34.735Z,94.30
2018-12-11T23:18:09.019Z,94.40
2018-12-11T23:20:43.447Z,94.30
2018-12-11T23:23:17.836Z,94.10
2018-12-11T23:25:52.270Z,94.30
2018-12-11T23:28:26.752Z,94.40
2018-12-11T23:31:01.190Z,93.70
2018-12-11T23:33:35.691Z,94.00
2018-12-11T23:36:10.080Z,94.10
2018-12-11T23:38:44.379Z,94.10
2018-12-11T23:41:18.884Z,93.70
2018-12-11T23:43:53.162Z,93.40
2018-12-11T23:46:27.585Z,93.10
2018-12-11T23:49:01.877Z,93.50
2018-12-11T23:51:36.212Z,93.50
2018-12-11T23:54:10.487Z,93.60
2018-12-11T23:56:44.973Z,93.20
2018-12-11T23:59:19.519Z,93.10
